sensor_id;sensor_type;location;lat;lon;timestamp;temperature;humidity
32534;DHT22;18973;48.580;8.912;2023-11-18T00:02:18;5.50;99.90
32534;DHT22;18973;48.580;8.912;2023-11-18T00:04:43;5.20;99.90
32534;DHT22;18973;48.580;8.912;2023-11-18T00:07:09;5.30;99.90
32534;DHT22;18973;48.580;8.912;2023-11-18T00:09:35;5.30;99.90
32534;DHT22;18973;48.580;8.912;2023-11-18T00:12:00;5.40;99.90
32534;DHT22;18973;48.580;8.912;2023-11-18T00:14:26;5.20;99.90
32534;DHT22;18973;48.580;8.912;2023-11-18T00:16:52;5.40;99.90
32534;DHT22;18973;48.580;8.912;2023-11-18T00:19:18;5.40;99.90
32534;DHT22;18973;48.580;8.912;2023-11-18T00:21:44;5.20;99.90
32534;DHT22;18973;48.580;8.912;2023-11-18T00:24:09;5.30;99.90
32534;DHT22;18973;48.580;8.912;2023-11-18T00:26:35;5.40;99.90
32534;DHT22;18973;48.580;8.912;2023-11-18T00:29:01;5.40;99.90
32534;DHT22;18973;48.580;8.912;2023-11-18T00:31:26;5.30;99.90
32534;DHT22;18973;48.580;8.912;2023-11-18T00:33:52;5.40;99.90
32534;DHT22;18973;48.580;8.912;2023-11-18T00:36:18;5.40;99.90
32534;DHT22;18973;48.580;8.912;2023-11-18T00:38:44;5.40;99.90
32534;DHT22;18973;48.580;8.912;2023-11-18T00:41:10;5.40;99.90
32534;DHT22;18973;48.580;8.912;2023-11-18T00:43:35;5.50;99.90
32534;DHT22;18973;48.580;8.912;2023-11-18T00:46:01;5.40;99.90
32534;DHT22;18973;48.580;8.912;2023-11-18T00:48:29;5.30;99.90
32534;DHT22;18973;48.580;8.912;2023-11-18T00:50:56;5.50;99.90
32534;DHT22;18973;48.580;8.912;2023-11-18T00:53:22;5.50;99.90
32534;DHT22;18973;48.580;8.912;2023-11-18T00:55:48;5.50;99.90
32534;DHT22;18973;48.580;8.912;2023-11-18T00:58:14;5.40;99.90
32534;DHT22;18973;48.580;8.912;2023-11-18T01:00:40;5.50;99.90
32534;DHT22;18973;48.580;8.912;2023-11-18T01:03:05;5.30;99.90
32534;DHT22;18973;48.580;8.912;2023-11-18T01:05:31;5.20;99.90
32534;DHT22;18973;48.580;8.912;2023-11-18T01:07:57;5.20;99.90
32534;DHT22;18973;48.580;8.912;2023-11-18T01:10:23;5.20;99.90
32534;DHT22;18973;48.580;8.912;2023-11-18T01:12:49;5.20;99.90
32534;DHT22;18973;48.580;8.912;2023-11-18T01:15:14;5.30;99.90
32534;DHT22;18973;48.580;8.912;2023-11-18T01:17:40;5.30;99.90
32534;DHT22;18973;48.580;8.912;2023-11-18T01:20:07;5.30;99.90
32534;DHT22;18973;48.580;8.912;2023-11-18T01:22:37;5.20;99.90
32534;DHT22;18973;48.580;8.912;2023-11-18T01:25:04;5.30;99.90
32534;DHT22;18973;48.580;8.912;2023-11-18T01:27:30;5.40;99.90
32534;DHT22;18973;48.580;8.912;2023-11-18T01:29:56;5.50;99.90
32534;DHT22;18973;48.580;8.912;2023-11-18T01:32:21;5.50;99.90
32534;DHT22;18973;48.580;8.912;2023-11-18T01:34:47;5.60;99.90
32534;DHT22;18973;48.580;8.912;2023-11-18T01:37:16;5.50;99.90
32534;DHT22;18973;48.580;8.912;2023-11-18T01:39:42;5.40;99.90
32534;DHT22;18973;48.580;8.912;2023-11-18T01:42:08;5.50;99.90
32534;DHT22;18973;48.580;8.912;2023-11-18T01:44:34;5.40;99.90
32534;DHT22;18973;48.580;8.912;2023-11-18T01:47:02;5.60;99.90
32534;DHT22;18973;48.580;8.912;2023-11-18T01:49:32;5.70;99.90
32534;DHT22;18973;48.580;8.912;2023-11-18T01:51:58;5.40;99.90
32534;DHT22;18973;48.580;8.912;2023-11-18T01:54:27;5.20;99.90
32534;DHT22;18973;48.580;8.912;2023-11-18T01:56:54;5.10;99.90
32534;DHT22;18973;48.580;8.912;2023-11-18T01:59:20;5.10;99.90
32534;DHT22;18973;48.580;8.912;2023-11-18T02:01:50;5.00;99.90
32534;DHT22;18973;48.580;8.912;2023-11-18T02:04:16;5.00;99.90
32534;DHT22;18973;48.580;8.912;2023-11-18T02:06:45;5.00;99.90
32534;DHT22;18973;48.580;8.912;2023-11-18T02:09:16;5.00;99.90
32534;DHT22;18973;48.580;8.912;2023-11-18T02:14:50;5.00;99.90
32534;DHT22;18973;48.580;8.912;2023-11-18T02:17:20;5.20;99.90
32534;DHT22;18973;48.580;8.912;2023-11-18T02:19:48;5.10;99.90
32534;DHT22;18973;48.580;8.912;2023-11-18T02:22:15;4.90;99.90
32534;DHT22;18973;48.580;8.912;2023-11-18T02:24:41;4.90;99.90
32534;DHT22;18973;48.580;8.912;2023-11-18T02:27:07;5.00;99.90
32534;DHT22;18973;48.580;8.912;2023-11-18T02:29:39;4.90;99.90
32534;DHT22;18973;48.580;8.912;2023-11-18T02:34:43;4.90;99.90
32534;DHT22;18973;48.580;8.912;2023-11-18T02:37:10;4.80;99.90
32534;DHT22;18973;48.580;8.912;2023-11-18T02:39:43;4.70;99.90
32534;DHT22;18973;48.580;8.912;2023-11-18T02:42:12;4.60;99.90
32534;DHT22;18973;48.580;8.912;2023-11-18T02:44:39;4.50;99.90
32534;DHT22;18973;48.580;8.912;2023-11-18T02:47:05;4.40;99.90
32534;DHT22;18973;48.580;8.912;2023-11-18T02:49:32;4.40;99.90
32534;DHT22;18973;48.580;8.912;2023-11-18T02:51:57;4.30;99.90
32534;DHT22;18973;48.580;8.912;2023-11-18T02:54:23;4.30;99.90
32534;DHT22;18973;48.580;8.912;2023-11-18T02:56:49;4.30;99.90
32534;DHT22;18973;48.580;8.912;2023-11-18T02:59:18;4.20;99.90
32534;DHT22;18973;48.580;8.912;2023-11-18T03:01:44;4.20;99.90
32534;DHT22;18973;48.580;8.912;2023-11-18T03:04:10;4.20;99.90
32534;DHT22;18973;48.580;8.912;2023-11-18T03:06:36;4.10;99.90
32534;DHT22;18973;48.580;8.912;2023-11-18T03:09:02;4.10;99.90
32534;DHT22;18973;48.580;8.912;2023-11-18T03:11:28;4.20;99.90
32534;DHT22;18973;48.580;8.912;2023-11-18T03:13:57;4.10;99.90
32534;DHT22;18973;48.580;8.912;2023-11-18T03:16:23;4.10;99.90
32534;DHT22;18973;48.580;8.912;2023-11-18T03:18:50;4.10;99.90
32534;DHT22;18973;48.580;8.912;2023-11-18T03:21:16;4.10;99.90
32534;DHT22;18973;48.580;8.912;2023-11-18T03:23:42;4.10;99.90
32534;DHT22;18973;48.580;8.912;2023-11-18T03:26:09;4.20;99.90
32534;DHT22;18973;48.580;8.912;2023-11-18T03:28:36;4.20;99.90
32534;DHT22;18973;48.580;8.912;2023-11-18T03:31:05;4.20;99.90
32534;DHT22;18973;48.580;8.912;2023-11-18T03:33:32;4.30;99.90
32534;DHT22;18973;48.580;8.912;2023-11-18T03:35:57;4.30;99.90
32534;DHT22;18973;48.580;8.912;2023-11-18T03:38:24;4.30;99.90
32534;DHT22;18973;48.580;8.912;2023-11-18T03:40:50;4.20;99.90
32534;DHT22;18973;48.580;8.912;2023-11-18T03:43:17;4.30;99.90
32534;DHT22;18973;48.580;8.912;2023-11-18T03:45:43;4.20;99.90
32534;DHT22;18973;48.580;8.912;2023-11-18T03:48:09;4.40;99.90
32534;DHT22;18973;48.580;8.912;2023-11-18T03:50:39;4.40;99.90
32534;DHT22;18973;48.580;8.912;2023-11-18T03:53:05;4.50;99.90
32534;DHT22;18973;48.580;8.912;2023-11-18T03:55:32;4.60;99.90
32534;DHT22;18973;48.580;8.912;2023-11-18T03:57:57;4.40;99.90
32534;DHT22;18973;48.580;8.912;2023-11-18T04:00:23;4.40;99.90
32534;DHT22;18973;48.580;8.912;2023-11-18T04:02:55;4.40;99.90
32534;DHT22;18973;48.580;8.912;2023-11-18T04:05:22;4.30;99.90
32534;DHT22;18973;48.580;8.912;2023-11-18T04:07:48;4.30;99.90
32534;DHT22;18973;48.580;8.912;2023-11-18T04:10:14;4.20;99.90
32534;DHT22;18973;48.580;8.912;2023-11-18T04:12:40;4.40;99.90
32534;DHT22;18973;48.580;8.912;2023-11-18T04:15:07;4.50;99.90
32534;DHT22;18973;48.580;8.912;2023-11-18T04:17:33;4.50;99.90
32534;DHT22;18973;48.580;8.912;2023-11-18T04:19:59;4.60;99.90
32534;DHT22;18973;48.580;8.912;2023-11-18T04:22:25;4.60;99.90
32534;DHT22;18973;48.580;8.912;2023-11-18T04:24:50;4.50;99.90
32534;DHT22;18973;48.580;8.912;2023-11-18T04:27:16;4.50;99.90
32534;DHT22;18973;48.580;8.912;2023-11-18T04:29:42;4.60;99.90
32534;DHT22;18973;48.580;8.912;2023-11-18T04:32:08;4.70;99.90
32534;DHT22;18973;48.580;8.912;2023-11-18T04:34:37;4.80;99.90
32534;DHT22;18973;48.580;8.912;2023-11-18T04:37:03;4.80;99.90
32534;DHT22;18973;48.580;8.912;2023-11-18T04:39:32;4.70;99.90
32534;DHT22;18973;48.580;8.912;2023-11-18T04:41:58;4.90;99.90
32534;DHT22;18973;48.580;8.912;2023-11-18T04:44:24;5.00;99.90
32534;DHT22;18973;48.580;8.912;2023-11-18T04:46:49;5.00;99.90
32534;DHT22;18973;48.580;8.912;2023-11-18T04:49:16;4.80;99.90
32534;DHT22;18973;48.580;8.912;2023-11-18T04:51:41;4.80;99.90
32534;DHT22;18973;48.580;8.912;2023-11-18T04:54:07;4.80;99.90
32534;DHT22;18973;48.580;8.912;2023-11-18T04:56:36;4.90;99.90
32534;DHT22;18973;48.580;8.912;2023-11-18T04:59:03;4.90;99.90
32534;DHT22;18973;48.580;8.912;2023-11-18T05:01:31;5.10;99.90
32534;DHT22;18973;48.580;8.912;2023-11-18T05:03:57;5.20;99.90
32534;DHT22;18973;48.580;8.912;2023-11-18T05:06:23;5.20;99.90
32534;DHT22;18973;48.580;8.912;2023-11-18T05:08:48;5.30;99.90
32534;DHT22;18973;48.580;8.912;2023-11-18T05:11:15;5.30;99.90
32534;DHT22;18973;48.580;8.912;2023-11-18T05:13:41;5.40;99.90
32534;DHT22;18973;48.580;8.912;2023-11-18T05:16:07;5.50;99.90
32534;DHT22;18973;48.580;8.912;2023-11-18T05:18:33;5.50;99.90
32534;DHT22;18973;48.580;8.912;2023-11-18T05:21:02;5.30;99.90
32534;DHT22;18973;48.580;8.912;2023-11-18T05:23:28;5.00;99.90
32534;DHT22;18973;48.580;8.912;2023-11-18T05:25:57;5.10;99.90
32534;DHT22;18973;48.580;8.912;2023-11-18T05:28:24;5.10;99.90
32534;DHT22;18973;48.580;8.912;2023-11-18T05:30:50;4.90;99.90
32534;DHT22;18973;48.580;8.912;2023-11-18T05:33:16;4.70;99.90
32534;DHT22;18973;48.580;8.912;2023-11-18T05:35:43;4.90;99.90
32534;DHT22;18973;48.580;8.912;2023-11-18T05:38:15;5.00;99.90
32534;DHT22;18973;48.580;8.912;2023-11-18T05:40:44;5.00;99.90
32534;DHT22;18973;48.580;8.912;2023-11-18T05:43:22;5.00;99.90
32534;DHT22;18973;48.580;8.912;2023-11-18T05:45:47;5.10;99.90
32534;DHT22;18973;48.580;8.912;2023-11-18T05:48:32;5.20;99.90
32534;DHT22;18973;48.580;8.912;2023-11-18T05:50:57;5.20;99.90
32534;DHT22;18973;48.580;8.912;2023-11-18T05:53:23;5.00;99.90
32534;DHT22;18973;48.580;8.912;2023-11-18T05:55:48;4.80;99.90
32534;DHT22;18973;48.580;8.912;2023-11-18T05:58:15;4.70;99.90
32534;DHT22;18973;48.580;8.912;2023-11-18T06:00:40;4.70;99.90
32534;DHT22;18973;48.580;8.912;2023-11-18T06:03:06;4.60;99.90
32534;DHT22;18973;48.580;8.912;2023-11-18T06:05:32;4.40;99.90
32534;DHT22;18973;48.580;8.912;2023-11-18T06:08:00;4.40;99.90
32534;DHT22;18973;48.580;8.912;2023-11-18T06:10:26;4.40;99.90
32534;DHT22;18973;48.580;8.912;2023-11-18T06:12:51;4.40;99.90
32534;DHT22;18973;48.580;8.912;2023-11-18T06:15:18;4.50;99.90
32534;DHT22;18973;48.580;8.912;2023-11-18T06:17:44;4.50;99.90
32534;DHT22;18973;48.580;8.912;2023-11-18T06:20:12;4.30;99.90
32534;DHT22;18973;48.580;8.912;2023-11-18T06:22:39;4.40;99.90
32534;DHT22;18973;48.580;8.912;2023-11-18T06:25:05;4.40;99.90
32534;DHT22;18973;48.580;8.912;2023-11-18T06:27:33;4.40;99.90
32534;DHT22;18973;48.580;8.912;2023-11-18T06:29:59;4.40;99.90
32534;DHT22;18973;48.580;8.912;2023-11-18T06:32:25;4.30;99.90
32534;DHT22;18973;48.580;8.912;2023-11-18T06:34:53;4.30;99.90
32534;DHT22;18973;48.580;8.912;2023-11-18T06:37:19;4.20;99.90
32534;DHT22;18973;48.580;8.912;2023-11-18T06:39:45;4.20;99.90
32534;DHT22;18973;48.580;8.912;2023-11-18T06:42:13;4.20;99.90
32534;DHT22;18973;48.580;8.912;2023-11-18T06:44:39;4.20;99.90
32534;DHT22;18973;48.580;8.912;2023-11-18T06:47:05;4.10;99.90
32534;DHT22;18973;48.580;8.912;2023-11-18T06:49:32;4.20;99.90
32534;DHT22;18973;48.580;8.912;2023-11-18T06:52:00;4.10;99.90
32534;DHT22;18973;48.580;8.912;2023-11-18T06:54:29;4.20;99.90
32534;DHT22;18973;48.580;8.912;2023-11-18T06:56:55;4.30;99.90
32534;DHT22;18973;48.580;8.912;2023-11-18T06:59:21;4.40;99.90
32534;DHT22;18973;48.580;8.912;2023-11-18T07:01:47;4.60;99.90
32534;DHT22;18973;48.580;8.912;2023-11-18T07:04:14;4.70;99.90
32534;DHT22;18973;48.580;8.912;2023-11-18T07:06:40;4.70;99.90
32534;DHT22;18973;48.580;8.912;2023-11-18T07:09:07;4.70;99.90
32534;DHT22;18973;48.580;8.912;2023-11-18T07:11:43;4.80;99.90
32534;DHT22;18973;48.580;8.912;2023-11-18T07:14:09;5.00;99.90
32534;DHT22;18973;48.580;8.912;2023-11-18T07:16:38;5.00;99.90
32534;DHT22;18973;48.580;8.912;2023-11-18T07:19:05;5.10;99.90
32534;DHT22;18973;48.580;8.912;2023-11-18T07:21:30;5.20;99.90
32534;DHT22;18973;48.580;8.912;2023-11-18T07:23:56;5.50;99.90
32534;DHT22;18973;48.580;8.912;2023-11-18T07:26:25;5.60;99.90
32534;DHT22;18973;48.580;8.912;2023-11-18T07:28:50;5.90;99.90
32534;DHT22;18973;48.580;8.912;2023-11-18T07:31:17;5.50;99.90
32534;DHT22;18973;48.580;8.912;2023-11-18T07:33:45;5.50;99.90
32534;DHT22;18973;48.580;8.912;2023-11-18T07:36:15;5.30;99.90
32534;DHT22;18973;48.580;8.912;2023-11-18T07:38:41;5.00;99.90
32534;DHT22;18973;48.580;8.912;2023-11-18T07:41:07;5.10;99.90
32534;DHT22;18973;48.580;8.912;2023-11-18T07:43:34;4.80;99.90
32534;DHT22;18973;48.580;8.912;2023-11-18T07:46:02;4.90;99.90
32534;DHT22;18973;48.580;8.912;2023-11-18T07:48:28;5.10;99.90
32534;DHT22;18973;48.580;8.912;2023-11-18T07:50:53;5.00;99.90
32534;DHT22;18973;48.580;8.912;2023-11-18T07:53:19;5.10;99.90
32534;DHT22;18973;48.580;8.912;2023-11-18T07:55:45;4.90;99.90
32534;DHT22;18973;48.580;8.912;2023-11-18T07:58:11;5.10;99.90
32534;DHT22;18973;48.580;8.912;2023-11-18T08:00:38;5.00;99.90
32534;DHT22;18973;48.580;8.912;2023-11-18T08:03:08;5.20;99.90
32534;DHT22;18973;48.580;8.912;2023-11-18T08:05:38;5.20;99.90
32534;DHT22;18973;48.580;8.912;2023-11-18T08:08:08;5.40;99.90
32534;DHT22;18973;48.580;8.912;2023-11-18T08:10:35;5.40;99.90
32534;DHT22;18973;48.580;8.912;2023-11-18T08:13:07;5.10;99.90
32534;DHT22;18973;48.580;8.912;2023-11-18T08:15:44;5.10;99.90
32534;DHT22;18973;48.580;8.912;2023-11-18T08:18:13;5.30;99.90
32534;DHT22;18973;48.580;8.912;2023-11-18T08:20:39;5.30;99.90
32534;DHT22;18973;48.580;8.912;2023-11-18T08:23:05;5.20;99.90
32534;DHT22;18973;48.580;8.912;2023-11-18T08:25:31;5.40;99.90
32534;DHT22;18973;48.580;8.912;2023-11-18T08:28:00;5.20;99.90
32534;DHT22;18973;48.580;8.912;2023-11-18T08:30:33;5.30;99.90
32534;DHT22;18973;48.580;8.912;2023-11-18T08:33:02;5.30;99.90
32534;DHT22;18973;48.580;8.912;2023-11-18T08:35:30;5.30;99.90
32534;DHT22;18973;48.580;8.912;2023-11-18T08:37:56;5.20;99.90
32534;DHT22;18973;48.580;8.912;2023-11-18T08:40:22;5.30;99.90
32534;DHT22;18973;48.580;8.912;2023-11-18T08:42:49;5.30;99.90
32534;DHT22;18973;48.580;8.912;2023-11-18T08:45:24;5.30;99.90
32534;DHT22;18973;48.580;8.912;2023-11-18T08:47:59;5.20;99.90
32534;DHT22;18973;48.580;8.912;2023-11-18T08:50:27;5.20;99.90
32534;DHT22;18973;48.580;8.912;2023-11-18T08:52:55;5.20;99.90
32534;DHT22;18973;48.580;8.912;2023-11-18T08:55:29;5.30;99.90
32534;DHT22;18973;48.580;8.912;2023-11-18T08:58:08;5.30;99.90
32534;DHT22;18973;48.580;8.912;2023-11-18T09:00:43;5.20;99.90
32534;DHT22;18973;48.580;8.912;2023-11-18T09:03:15;5.20;99.90
32534;DHT22;18973;48.580;8.912;2023-11-18T09:08:30;5.40;99.90
32534;DHT22;18973;48.580;8.912;2023-11-18T09:11:04;5.40;99.90
32534;DHT22;18973;48.580;8.912;2023-11-18T09:13:34;5.40;99.90
32534;DHT22;18973;48.580;8.912;2023-11-18T09:16:06;5.50;99.90
32534;DHT22;18973;48.580;8.912;2023-11-18T09:18:37;5.60;99.90
32534;DHT22;18973;48.580;8.912;2023-11-18T09:21:05;5.70;99.90
32534;DHT22;18973;48.580;8.912;2023-11-18T09:23:33;5.60;99.90
32534;DHT22;18973;48.580;8.912;2023-11-18T09:26:04;5.80;99.90
32534;DHT22;18973;48.580;8.912;2023-11-18T09:28:36;5.90;99.90
32534;DHT22;18973;48.580;8.912;2023-11-18T09:31:03;6.00;99.90
32534;DHT22;18973;48.580;8.912;2023-11-18T09:33:31;6.20;99.90
32534;DHT22;18973;48.580;8.912;2023-11-18T09:36:01;6.20;99.90
32534;DHT22;18973;48.580;8.912;2023-11-18T09:38:31;6.20;99.90
32534;DHT22;18973;48.580;8.912;2023-11-18T09:40:59;6.30;99.90
32534;DHT22;18973;48.580;8.912;2023-11-18T09:43:31;6.30;99.90
32534;DHT22;18973;48.580;8.912;2023-11-18T09:46:32;6.30;99.90
32534;DHT22;18973;48.580;8.912;2023-11-18T09:51:45;6.50;99.90
32534;DHT22;18973;48.580;8.912;2023-11-18T09:54:33;6.60;99.90
32534;DHT22;18973;48.580;8.912;2023-11-18T09:57:10;6.60;99.90
32534;DHT22;18973;48.580;8.912;2023-11-18T10:00:00;6.80;99.90
32534;DHT22;18973;48.580;8.912;2023-11-18T10:02:46;7.00;99.90
32534;DHT22;18973;48.580;8.912;2023-11-18T10:05:13;7.20;99.90
32534;DHT22;18973;48.580;8.912;2023-11-18T10:07:41;7.30;99.90
32534;DHT22;18973;48.580;8.912;2023-11-18T10:10:10;7.20;99.90
32534;DHT22;18973;48.580;8.912;2023-11-18T10:12:46;6.80;99.90
32534;DHT22;18973;48.580;8.912;2023-11-18T10:15:18;6.70;99.90
32534;DHT22;18973;48.580;8.912;2023-11-18T10:17:45;6.90;99.90
32534;DHT22;18973;48.580;8.912;2023-11-18T10:20:23;7.00;99.90
32534;DHT22;18973;48.580;8.912;2023-11-18T10:23:09;7.00;99.90
32534;DHT22;18973;48.580;8.912;2023-11-18T10:25:37;7.10;99.90
32534;DHT22;18973;48.580;8.912;2023-11-18T10:28:30;7.30;99.90
32534;DHT22;18973;48.580;8.912;2023-11-18T10:31:05;7.30;99.90
32534;DHT22;18973;48.580;8.912;2023-11-18T10:33:37;6.90;99.90
32534;DHT22;18973;48.580;8.912;2023-11-18T10:36:04;7.10;99.90
32534;DHT22;18973;48.580;8.912;2023-11-18T10:38:33;7.30;99.90
32534;DHT22;18973;48.580;8.912;2023-11-18T10:41:05;7.50;99.90
32534;DHT22;18973;48.580;8.912;2023-11-18T10:43:31;7.50;99.90
32534;DHT22;18973;48.580;8.912;2023-11-18T10:46:09;7.60;99.90
32534;DHT22;18973;48.580;8.912;2023-11-18T10:48:46;7.60;99.90
32534;DHT22;18973;48.580;8.912;2023-11-18T10:51:19;7.60;99.90
32534;DHT22;18973;48.580;8.912;2023-11-18T10:53:50;7.70;99.90
32534;DHT22;18973;48.580;8.912;2023-11-18T10:56:28;7.60;99.90
32534;DHT22;18973;48.580;8.912;2023-11-18T11:01:31;7.80;99.90
32534;DHT22;18973;48.580;8.912;2023-11-18T11:03:57;7.70;99.90
32534;DHT22;18973;48.580;8.912;2023-11-18T11:06:24;7.80;99.90
32534;DHT22;18973;48.580;8.912;2023-11-18T11:08:53;7.80;99.90
32534;DHT22;18973;48.580;8.912;2023-11-18T11:11:22;7.70;99.90
32534;DHT22;18973;48.580;8.912;2023-11-18T11:14:00;7.70;99.90
32534;DHT22;18973;48.580;8.912;2023-11-18T11:16:33;7.60;99.90
32534;DHT22;18973;48.580;8.912;2023-11-18T11:19:04;7.70;99.90
32534;DHT22;18973;48.580;8.912;2023-11-18T11:21:43;7.80;99.90
32534;DHT22;18973;48.580;8.912;2023-11-18T11:24:22;7.80;99.90
32534;DHT22;18973;48.580;8.912;2023-11-18T11:27:14;7.90;99.90
32534;DHT22;18973;48.580;8.912;2023-11-18T11:29:59;10.00;99.90
32534;DHT22;18973;48.580;8.912;2023-11-18T11:35:33;9.60;99.90
32534;DHT22;18973;48.580;8.912;2023-11-18T11:38:03;9.30;99.90
32534;DHT22;18973;48.580;8.912;2023-11-18T11:40:37;9.00;99.90
32534;DHT22;18973;48.580;8.912;2023-11-18T11:43:06;8.90;99.90
32534;DHT22;18973;48.580;8.912;2023-11-18T11:45:35;8.80;99.90
32534;DHT22;18973;48.580;8.912;2023-11-18T11:48:03;8.60;99.90
32534;DHT22;18973;48.580;8.912;2023-11-18T11:50:53;8.50;99.90
32534;DHT22;18973;48.580;8.912;2023-11-18T11:53:22;8.30;99.90
32534;DHT22;18973;48.580;8.912;2023-11-18T11:55:49;8.20;99.90
32534;DHT22;18973;48.580;8.912;2023-11-18T11:58:31;8.10;99.90
32534;DHT22;18973;48.580;8.912;2023-11-18T12:01:25;8.10;99.90
32534;DHT22;18973;48.580;8.912;2023-11-18T12:03:56;8.10;99.90
32534;DHT22;18973;48.580;8.912;2023-11-18T12:06:24;8.10;99.90
32534;DHT22;18973;48.580;8.912;2023-11-18T12:08:54;8.00;99.90
32534;DHT22;18973;48.580;8.912;2023-11-18T12:11:20;8.00;99.90
32534;DHT22;18973;48.580;8.912;2023-11-18T12:14:04;8.10;99.90
32534;DHT22;18973;48.580;8.912;2023-11-18T12:19:30;8.00;99.90
32534;DHT22;18973;48.580;8.912;2023-11-18T12:21:58;7.90;99.90
32534;DHT22;18973;48.580;8.912;2023-11-18T12:24:26;7.90;99.90
32534;DHT22;18973;48.580;8.912;2023-11-18T12:26:54;8.00;99.90
32534;DHT22;18973;48.580;8.912;2023-11-18T12:29:33;8.00;99.90
32534;DHT22;18973;48.580;8.912;2023-11-18T12:31:59;8.00;99.90
32534;DHT22;18973;48.580;8.912;2023-11-18T12:34:54;7.90;99.90
32534;DHT22;18973;48.580;8.912;2023-11-18T12:37:45;7.90;99.90
32534;DHT22;18973;48.580;8.912;2023-11-18T12:43:10;7.90;99.90
32534;DHT22;18973;48.580;8.912;2023-11-18T12:48:31;7.90;99.90
32534;DHT22;18973;48.580;8.912;2023-11-18T12:50:58;8.00;99.90
32534;DHT22;18973;48.580;8.912;2023-11-18T12:53:25;8.00;99.90
32534;DHT22;18973;48.580;8.912;2023-11-18T12:55:52;8.00;99.90
32534;DHT22;18973;48.580;8.912;2023-11-18T12:58:18;8.10;99.90
32534;DHT22;18973;48.580;8.912;2023-11-18T13:00:44;8.10;99.90
32534;DHT22;18973;48.580;8.912;2023-11-18T13:03:11;8.10;99.90
32534;DHT22;18973;48.580;8.912;2023-11-18T13:05:41;8.10;99.90
32534;DHT22;18973;48.580;8.912;2023-11-18T13:08:06;8.10;99.90
32534;DHT22;18973;48.580;8.912;2023-11-18T13:10:32;8.00;99.90
32534;DHT22;18973;48.580;8.912;2023-11-18T13:12:58;8.00;99.90
32534;DHT22;18973;48.580;8.912;2023-11-18T13:15:25;8.00;99.90
32534;DHT22;18973;48.580;8.912;2023-11-18T13:18:01;8.10;99.90
32534;DHT22;18973;48.580;8.912;2023-11-18T13:20:28;8.00;99.90
32534;DHT22;18973;48.580;8.912;2023-11-18T13:22:54;7.90;99.90
32534;DHT22;18973;48.580;8.912;2023-11-18T13:25:22;7.90;99.90
32534;DHT22;18973;48.580;8.912;2023-11-18T13:27:49;7.90;99.90
32534;DHT22;18973;48.580;8.912;2023-11-18T13:30:15;8.00;99.90
32534;DHT22;18973;48.580;8.912;2023-11-18T13:32:43;8.10;99.90
32534;DHT22;18973;48.580;8.912;2023-11-18T13:35:12;7.90;99.90
32534;DHT22;18973;48.580;8.912;2023-11-18T13:37:39;8.00;99.90
32534;DHT22;18973;48.580;8.912;2023-11-18T13:40:07;8.10;99.90
32534;DHT22;18973;48.580;8.912;2023-11-18T13:42:33;8.00;99.90
32534;DHT22;18973;48.580;8.912;2023-11-18T13:45:12;7.90;99.90
32534;DHT22;18973;48.580;8.912;2023-11-18T13:47:47;7.80;99.90
32534;DHT22;18973;48.580;8.912;2023-11-18T13:50:15;7.80;99.90
32534;DHT22;18973;48.580;8.912;2023-11-18T13:52:42;7.80;99.90
32534;DHT22;18973;48.580;8.912;2023-11-18T13:55:12;7.70;99.90
32534;DHT22;18973;48.580;8.912;2023-11-18T13:57:45;7.80;99.90
32534;DHT22;18973;48.580;8.912;2023-11-18T14:00:13;7.80;99.90
32534;DHT22;18973;48.580;8.912;2023-11-18T14:02:41;7.80;99.90
32534;DHT22;18973;48.580;8.912;2023-11-18T14:05:17;7.70;99.90
32534;DHT22;18973;48.580;8.912;2023-11-18T14:07:43;7.70;99.90
32534;DHT22;18973;48.580;8.912;2023-11-18T14:10:10;7.70;99.90
32534;DHT22;18973;48.580;8.912;2023-11-18T14:12:39;7.70;99.90
32534;DHT22;18973;48.580;8.912;2023-11-18T14:15:05;7.80;99.90
32534;DHT22;18973;48.580;8.912;2023-11-18T14:17:35;7.70;99.90
32534;DHT22;18973;48.580;8.912;2023-11-18T14:20:01;7.80;99.90
32534;DHT22;18973;48.580;8.912;2023-11-18T14:22:27;7.70;99.90
32534;DHT22;18973;48.580;8.912;2023-11-18T14:24:53;7.70;99.90
32534;DHT22;18973;48.580;8.912;2023-11-18T14:27:19;7.80;99.90
32534;DHT22;18973;48.580;8.912;2023-11-18T14:29:45;7.80;99.90
32534;DHT22;18973;48.580;8.912;2023-11-18T14:32:12;7.80;99.90
32534;DHT22;18973;48.580;8.912;2023-11-18T14:34:39;7.80;99.90
32534;DHT22;18973;48.580;8.912;2023-11-18T14:37:07;7.80;99.90
32534;DHT22;18973;48.580;8.912;2023-11-18T14:39:33;7.70;99.90
32534;DHT22;18973;48.580;8.912;2023-11-18T14:42:01;7.70;99.90
32534;DHT22;18973;48.580;8.912;2023-11-18T14:44:27;7.80;99.90
32534;DHT22;18973;48.580;8.912;2023-11-18T14:46:53;7.70;99.90
32534;DHT22;18973;48.580;8.912;2023-11-18T14:49:20;7.70;99.90
32534;DHT22;18973;48.580;8.912;2023-11-18T14:51:45;7.80;99.90
32534;DHT22;18973;48.580;8.912;2023-11-18T14:54:14;7.80;99.90
32534;DHT22;18973;48.580;8.912;2023-11-18T14:56:41;7.70;99.90
32534;DHT22;18973;48.580;8.912;2023-11-18T14:59:06;7.70;99.90
32534;DHT22;18973;48.580;8.912;2023-11-18T15:01:33;7.60;99.90
32534;DHT22;18973;48.580;8.912;2023-11-18T15:03:59;7.70;99.90
32534;DHT22;18973;48.580;8.912;2023-11-18T15:06:26;7.70;99.90
32534;DHT22;18973;48.580;8.912;2023-11-18T15:08:52;7.70;99.90
32534;DHT22;18973;48.580;8.912;2023-11-18T15:11:22;7.70;99.90
32534;DHT22;18973;48.580;8.912;2023-11-18T15:13:49;7.70;99.90
32534;DHT22;18973;48.580;8.912;2023-11-18T15:16:18;7.70;99.90
32534;DHT22;18973;48.580;8.912;2023-11-18T15:18:44;7.80;99.90
32534;DHT22;18973;48.580;8.912;2023-11-18T15:21:13;7.70;99.90
32534;DHT22;18973;48.580;8.912;2023-11-18T15:23:41;7.70;99.90
32534;DHT22;18973;48.580;8.912;2023-11-18T15:26:07;7.80;99.90
32534;DHT22;18973;48.580;8.912;2023-11-18T15:28:37;7.70;99.90
32534;DHT22;18973;48.580;8.912;2023-11-18T15:31:03;7.60;99.90
32534;DHT22;18973;48.580;8.912;2023-11-18T15:33:29;7.70;99.90
32534;DHT22;18973;48.580;8.912;2023-11-18T15:35:56;7.80;99.90
32534;DHT22;18973;48.580;8.912;2023-11-18T15:38:22;7.60;99.90
32534;DHT22;18973;48.580;8.912;2023-11-18T15:40:48;7.60;99.90
32534;DHT22;18973;48.580;8.912;2023-11-18T15:43:15;7.70;99.90
32534;DHT22;18973;48.580;8.912;2023-11-18T15:45:42;7.70;99.90
32534;DHT22;18973;48.580;8.912;2023-11-18T15:48:10;7.70;99.90
32534;DHT22;18973;48.580;8.912;2023-11-18T15:50:36;7.60;99.90
32534;DHT22;18973;48.580;8.912;2023-11-18T15:53:05;7.60;99.90
32534;DHT22;18973;48.580;8.912;2023-11-18T15:55:32;7.60;99.90
32534;DHT22;18973;48.580;8.912;2023-11-18T15:57:57;7.60;99.90
32534;DHT22;18973;48.580;8.912;2023-11-18T16:00:26;7.60;99.90
32534;DHT22;18973;48.580;8.912;2023-11-18T16:02:54;7.60;99.90
32534;DHT22;18973;48.580;8.912;2023-11-18T16:05:21;7.60;99.90
32534;DHT22;18973;48.580;8.912;2023-11-18T16:07:52;7.70;99.90
32534;DHT22;18973;48.580;8.912;2023-11-18T16:10:21;7.60;99.90
32534;DHT22;18973;48.580;8.912;2023-11-18T16:12:47;7.60;99.90
32534;DHT22;18973;48.580;8.912;2023-11-18T16:15:14;7.60;99.90
32534;DHT22;18973;48.580;8.912;2023-11-18T16:17:41;7.60;99.90
32534;DHT22;18973;48.580;8.912;2023-11-18T16:20:07;7.60;99.90